Meteorología y climatología de Navarra
Datos de la estación - Meteo Navarra

Estación de Urbasa GN

Altitud 886 m.


Datos desde el 09/11/2018 hasta el 10/11/2018 en horario solar
Los datos son PROVISIONALES

Anterior Página 1 de 1 Siguiente Descargar: Formato para Excel 2000 o superior   Formato csv   Formato para OpenOffice Calc
Fecha Temperatura Humedad relativa Radiación global Insolación Precipitación Velocidad viento 10 m Velocidad viento 10 m Dirección viento 10 m
ºC % W/m² s l/m² m/s km/h º
09/11/2018 0:00 5.5 96 24.4 0 0.0 0.9 3.3 296
09/11/2018 0:10 5.4 96 23.9 0 0.0 0.7 2.6 294
09/11/2018 0:20 5.3 96 23.7 0 0.0 0.9 3.2 287
09/11/2018 0:30 5.3 95 23.5 0 0.1 1.0 3.5 278
09/11/2018 0:40 5.3 96 23.4 0 0.0 1.6 5.9 263
09/11/2018 0:50 5.5 95 24.1 0 0.0 1.6 5.7 279
09/11/2018 1:00 5.6 94 24.0 2 0.0 2.5 9.1 278
09/11/2018 1:10 5.5 94 23.8 0 0.0 2.3 8.1 275
09/11/2018 1:20 5.5 93 24.4 0 0.0 2.6 9.2 271
09/11/2018 1:30 5.4 93 24.2 0 0.0 2.4 8.6 271
09/11/2018 1:40 5.4 93 24.0 0 0.0 2.7 9.5 275
09/11/2018 1:50 5.4 92 24.6 0 0.0 2.6 9.2 272
09/11/2018 2:00 5.4 92 24.3 0 0.0 2.3 8.2 290
09/11/2018 2:10 5.2 92 24.2 0 0.0 1.6 5.6 308
09/11/2018 2:20 5.2 92 24.3 0 0.0 1.7 6.0 292
09/11/2018 2:30 5.2 92 24.2 0 0.0 1.5 5.5 305
09/11/2018 2:40 5.2 93 23.7 0 0.0 1.5 5.3 305
09/11/2018 2:50 5.2 93 23.8 0 0.0 1.3 4.7 305
09/11/2018 3:00 5.2 93 23.9 0 0.0 1.0 3.7 334
09/11/2018 3:10 5.1 94 23.8 0 0.0 1.5 5.4 310
09/11/2018 3:20 5.0 95 24.3 2 0.0 1.2 4.4 301
09/11/2018 3:30 4.9 96 23.8 0 0.0 1.5 5.4 283
09/11/2018 3:40 4.9 96 23.8 0 0.2 1.9 6.8 301
09/11/2018 3:50 4.8 96 23.6 0 0.0 1.7 6.1 285
09/11/2018 4:00 4.8 97 23.9 0 0.1 1.9 6.9 280
09/11/2018 4:10 4.7 97 24.2 0 0.0 1.8 6.6 276
09/11/2018 4:20 4.8 97 23.5 0 0.0 2.1 7.5 267
09/11/2018 4:30 4.8 97 23.2 0 0.0 1.5 5.3 280
09/11/2018 4:40 4.8 97 23.2 0 0.0 1.3 4.6 270
09/11/2018 4:50 4.7 96 23.5 0 0.0 2.0 7.0 284
09/11/2018 5:00 4.9 96 23.5 0 0.0 1.8 6.4 280
09/11/2018 5:10 4.8 96 23.6 0 0.0 1.6 5.6 298
09/11/2018 5:20 4.8 97 23.9 2 0.0 1.9 6.9 300
09/11/2018 5:30 4.7 98 23.8 0 0.0 2.6 9.5 294
09/11/2018 5:40 4.7 98 23.9 0 0.0 1.8 6.5 289
09/11/2018 5:50 4.6 97 23.6 0 0.0 1.8 6.6 285
09/11/2018 6:00 4.6 96 23.6 0 0.0 1.1 3.9 284
09/11/2018 6:10 4.5 96 23.5 0 0.0 1.7 6.0 285
09/11/2018 6:20 4.5 96 23.6 0 0.0 0.8 2.8 286
09/11/2018 6:30 4.6 97 23.1 0 0.0 0.8 3.0 69
09/11/2018 6:40 4.6 97 23.7 0 0.0 0.8 2.8 42
09/11/2018 6:50 4.7 97 24.1 0 0.0 0.8 3.0 333
09/11/2018 7:00 4.8 97 25.2 0 0.0 0.8 2.8 305
09/11/2018 7:10 4.8 97 26.3 0 0.0 1.7 6.2 273
09/11/2018 7:20 4.8 96 30.0 342 0.0 0.9 3.3 299
09/11/2018 7:30 4.8 96 37.3 400 0.0 1.0 3.4 293
09/11/2018 7:40 4.8 95 54.8 456 0.0 1.8 6.5 278
09/11/2018 7:50 4.8 95 58.7 80 0.0 1.2 4.1 287
09/11/2018 8:00 4.8 95 65.2 28 0.0 1.2 4.2 291
09/11/2018 8:10 4.7 95 96.8 266 0.0 1.9 6.9 264
09/11/2018 8:20 4.8 95 108.3 320 0.0 1.7 6.1 264
09/11/2018 8:30 4.9 95 155.3 600 0.0 1.2 4.1 260
09/11/2018 8:40 5.2 94 181.5 600 0.0 0.9 3.2 289
09/11/2018 8:50 5.4 94 182.2 600 0.0 1.2 4.2 3
09/11/2018 9:00 5.4 93 335.7 600 0.0 1.7 6.0 338
09/11/2018 9:10 5.5 93 249.6 600 0.0 1.0 3.6 320
09/11/2018 9:20 5.9 91 269.9 600 0.0 1.8 6.6 297
09/11/2018 9:30 6.1 88 261.8 600 0.0 1.4 4.9 279
09/11/2018 9:40 6.4 87 238.7 600 0.0 1.3 4.6 281
09/11/2018 9:50 6.4 87 242.3 516 0.0 1.9 6.8 289
09/11/2018 10:00 6.4 87 353.2 600 0.0 2.0 7.0 297
09/11/2018 10:10 6.8 86 284.4 472 0.0 1.8 6.6 289
09/11/2018 10:20 6.4 85 371.2 504 0.0 2.8 9.9 269
09/11/2018 10:30 6.9 84 422.5 582 0.0 2.5 9.1 260
09/11/2018 10:40 7.0 83 352.9 600 0.0 3.5 12.7 256
09/11/2018 10:50 7.0 83 402.0 600 0.0 3.2 11.6 255
09/11/2018 11:00 7.4 82 570.5 600 0.0 2.8 9.9 246
09/11/2018 11:10 7.6 79 560.7 600 0.0 2.5 9.1 245
09/11/2018 11:20 8.1 79 607.3 600 0.0 1.9 6.7 272
09/11/2018 11:30 7.8 77 573.8 600 0.0 2.0 7.2 266
09/11/2018 11:40 7.9 76 593.0 600 0.0 2.5 8.9 258
09/11/2018 11:50 8.4 74 581.8 600 0.0 2.4 8.5 270
09/11/2018 12:00 8.4 74 558.5 592 0.0 3.2 11.4 255
09/11/2018 12:10 8.4 73 458.0 428 0.0 2.7 9.8 261
09/11/2018 12:20 8.5 73 414.2 464 0.0 2.0 7.1 245
09/11/2018 12:30 9.3 70 547.5 586 0.0 2.7 9.6 260
09/11/2018 12:40 9.3 68 568.1 600 0.0 2.7 9.6 239
09/11/2018 12:50 9.1 69 268.3 280 0.0 2.2 7.8 240
09/11/2018 13:00 9.2 72 502.2 600 0.0 2.1 7.6 264
09/11/2018 13:10 8.9 70 535.3 600 0.0 3.5 12.6 266
09/11/2018 13:20 8.6 69 481.5 600 0.0 3.5 12.6 261
09/11/2018 13:30 8.9 69 453.7 600 0.0 2.6 9.5 252
09/11/2018 13:40 9.1 68 486.3 600 0.0 3.2 11.7 257
09/11/2018 13:50 8.8 69 272.2 520 0.0 3.0 10.9 267
09/11/2018 14:00 8.8 70 460.8 600 0.0 1.8 6.4 239
09/11/2018 14:10 9.3 67 435.9 600 0.0 2.1 7.7 245
09/11/2018 14:20 9.2 66 393.5 600 0.0 1.9 6.9 248
09/11/2018 14:30 9.4 61 374.8 600 0.0 2.5 9.0 225
09/11/2018 14:40 9.4 57 339.6 600 0.0 3.0 10.9 223
09/11/2018 14:50 9.0 58 325.2 600 0.0 2.9 10.5 230
09/11/2018 15:00 9.1 59 308.0 598 0.0 2.8 10.2 238
09/11/2018 15:10 8.6 62 93.6 16 0.0 2.9 10.4 240
09/11/2018 15:20 7.8 66 103.0 114 0.0 3.5 12.5 231
09/11/2018 15:30 8.2 67 260.4 600 0.0 2.7 9.8 219
09/11/2018 15:40 8.4 67 186.9 600 0.0 2.7 9.6 221
09/11/2018 15:50 8.2 67 86.1 24 0.0 2.6 9.2 214
09/11/2018 16:00 7.9 68 66.8 0 0.0 1.9 6.8 216
09/11/2018 16:10 7.9 68 60.9 104 0.0 2.0 7.0 218
09/11/2018 16:20 7.7 68 48.3 400 0.0 2.1 7.5 219
09/11/2018 16:30 7.6 69 39.7 600 0.0 1.9 6.9 233
09/11/2018 16:40 7.5 70 35.4 600 0.0 1.7 6.2 210
09/11/2018 16:50 7.5 72 30.6 356 0.0 2.1 7.4 240
09/11/2018 17:00 7.3 74 27.8 2 0.0 1.8 6.4 223
09/11/2018 17:10 7.4 74 26.8 0 0.0 2.3 8.4 245
09/11/2018 17:20 7.3 75 27.3 0 0.0 2.3 8.2 248
09/11/2018 17:30 7.4 75 27.8 0 0.0 1.9 6.7 217
09/11/2018 17:40 7.4 76 28.3 0 0.0 1.0 3.7 207
09/11/2018 17:50 7.5 76 28.4 0 0.0 1.1 3.9 235
09/11/2018 18:00 7.6 76 28.5 0 0.0 1.1 4.1 210
09/11/2018 18:10 7.5 77 28.3 2 0.0 1.7 6.1 242
09/11/2018 18:20 7.4 80 27.8 0 0.0 2.1 7.6 242
09/11/2018 18:30 7.1 84 26.1 0 0.0 2.3 8.3 247
09/11/2018 18:40 7.0 85 26.5 0 0.0 1.7 6.0 243
09/11/2018 18:50 7.0 84 27.2 0 0.0 0.8 2.9 205
09/11/2018 19:00 7.1 84 27.4 0 0.0 1.4 5.1 194
09/11/2018 19:10 7.1 83 27.5 0 0.0 1.5 5.2 180
09/11/2018 19:20 7.1 84 27.3 0 0.0 2.4 8.5 176
09/11/2018 19:30 7.1 84 27.3 0 0.0 1.5 5.4 206
09/11/2018 19:40 7.4 84 27.0 0 0.0 1.9 6.9 208
09/11/2018 19:50 7.5 84 27.1 0 0.0 2.6 9.4 235
09/11/2018 20:00 7.6 84 26.3 0 0.0 2.7 9.8 225
09/11/2018 20:10 7.7 84 26.0 0 0.0 2.7 9.6 234
09/11/2018 20:20 7.8 84 26.5 0 0.0 1.9 6.8 224
09/11/2018 20:30 8.1 82 27.3 0 0.0 1.9 7.0 202
09/11/2018 20:40 8.2 83 26.3 0 0.0 1.7 6.3 206
09/11/2018 20:50 8.1 85 25.4 0 0.1 2.7 9.6 199
09/11/2018 21:00 7.8 88 26.0 0 0.1 1.9 6.8 209
09/11/2018 21:10 7.7 89 26.0 0 0.1 2.6 9.3 213
09/11/2018 21:20 7.7 90 25.5 0 0.2 2.3 8.2 211
09/11/2018 21:30 7.6 92 25.7 0 0.1 2.1 7.7 206
09/11/2018 21:40 7.8 91 25.7 0 0.1 2.4 8.7 192
09/11/2018 21:50 7.7 93 25.7 0 0.0 2.0 7.1 183
09/11/2018 22:00 7.5 93 25.8 0 0.1 1.9 6.8 168
09/11/2018 22:10 7.5 94 26.1 0 0.1 2.2 7.8 175
09/11/2018 22:20 7.2 94 25.4 0 0.1 3.0 10.6 170
09/11/2018 22:30 6.8 94 25.4 0 0.1 2.2 7.9 176
09/11/2018 22:40 6.7 94 25.0 0 0.0 1.2 4.4 188
09/11/2018 22:50 6.5 93 24.9 0 0.0 2.0 7.3 169
09/11/2018 23:00 6.4 92 24.7 0 0.0 2.4 8.8 165
09/11/2018 23:10 6.3 89 24.7 0 0.0 2.8 10.0 163
09/11/2018 23:20 6.4 87 24.5 0 0.0 2.2 7.7 165
09/11/2018 23:30 6.3 87 24.7 0 0.0 1.9 6.9 175
09/11/2018 23:40 6.4 86 24.6 0 0.2 2.0 7.3 186
09/11/2018 23:50 6.3 87 23.8 0 0.3 1.9 6.9 194
Anterior Página 1 de 1 Siguiente

NOTA: Tipo de datos según el color:
   - Valores diarios o 10 minutos correctos
   - Valores diarios calculados a partir de un número de datos 10 minutos menor que 144 y mayor que 120, o de un número de datos semihorarios menor que 48 y mayor que 40 (caso de las estaciones de Riegos de Navarra y del MARM)
   - Valores diez minutos estimados


Contacto        Enlaces        Aviso legal